Pricetown, Pennsylvania
Current Conditions -  °F | °C
As of 4:54 PM on Sunday 25 Jan 2015 (Local Time) from KRDG Reporting Station
Broken Clouds Broken Clouds  
Wind Chill: 39°   Ceiling: 2900
Heat Index: 39°   Visibility: 10mi
Dew Point: 29°   Wind: 0mph
Humidity: 67%   Direction: NA
Pressure: 29.82"   Gusts: NA
Location:  40.4504°N, 75.8012°W
Report Text: KRDG 252154Z AUTO 00000KT 10SM BKN029 04/M02 A2982 RMK AO2 SLP105 T00391017
Loading
Personal Weather Stations






























Interactive Weather Map New forecast layout! Learn more

10-Day Weather Forecast

Advertisements
Track Severe Weather on mobile